createdAt,value
2023-08-13T00:00:48.688Z,81.73
2023-08-13T00:03:19.438Z,80.77
2023-08-13T00:05:52.358Z,80.67
2023-08-13T00:08:22.842Z,78.74
2023-08-13T00:10:53.333Z,80.47
2023-08-13T00:13:23.910Z,81.93
2023-08-13T00:15:54.488Z,78.89
2023-08-13T00:18:25.013Z,78.61
2023-08-13T00:20:57.166Z,80.13
2023-08-13T00:23:28.015Z,78.59
2023-08-13T00:25:58.626Z,75.87
2023-08-13T00:28:29.204Z,78.35
2023-08-13T00:30:59.759Z,77.81
2023-08-13T00:33:30.276Z,77.24
2023-08-13T00:36:02.267Z,77.83
2023-08-13T00:38:32.980Z,77.62
2023-08-13T00:41:03.432Z,77.97
2023-08-13T00:43:33.803Z,75.61
2023-08-13T00:46:04.292Z,77.81
2023-08-13T00:48:35.134Z,75.05
2023-08-13T00:51:08.752Z,73.07
2023-08-13T00:53:47.111Z,73.17
2023-08-13T00:56:18.893Z,73.05
2023-08-13T00:58:49.541Z,71.75
2023-08-13T01:01:20.478Z,74.54
2023-08-13T01:03:50.975Z,72.47
2023-08-13T01:06:30.080Z,72.13
2023-08-13T01:09:06.028Z,71.68
2023-08-13T01:11:44.954Z,71.99
2023-08-13T01:14:23.526Z,71.22
2023-08-13T01:16:55.918Z,71.92
2023-08-13T01:19:27.248Z,72.76
2023-08-13T01:21:59.379Z,69.56
2023-08-13T01:24:31.625Z,70.43
2023-08-13T01:27:19.263Z,72.60
2023-08-13T01:29:56.467Z,73.56
2023-08-13T01:32:32.397Z,70.03
2023-08-13T01:35:03.692Z,70.78
2023-08-13T01:37:34.182Z,69.15
2023-08-13T01:40:06.978Z,71.35
2023-08-13T01:42:37.597Z,70.66
2023-08-13T01:45:09.232Z,68.38
2023-08-13T01:47:39.784Z,70.04
2023-08-13T01:50:11.033Z,69.16
2023-08-13T01:52:41.565Z,68.36
2023-08-13T01:55:14.504Z,68.69
2023-08-13T01:57:44.884Z,68.29
2023-08-13T02:00:15.723Z,69.97
2023-08-13T02:02:46.269Z,69.45
2023-08-13T02:05:17.039Z,65.53
2023-08-13T02:07:47.567Z,67.06
2023-08-13T02:10:19.816Z,67.56
2023-08-13T02:12:53.098Z,68.10
2023-08-13T02:15:26.540Z,68.31
2023-08-13T02:17:57.096Z,66.87
2023-08-13T02:20:27.699Z,66.64
2023-08-13T02:22:58.181Z,66.27
2023-08-13T02:25:30.309Z,65.58
2023-08-13T02:28:00.870Z,68.34
2023-08-13T02:30:31.417Z,66.78
2023-08-13T02:33:01.969Z,64.28
2023-08-13T02:35:32.577Z,65.18
2023-08-13T02:38:03.126Z,66.11
2023-08-13T02:40:35.283Z,62.78
2023-08-13T02:43:06.894Z,64.81
2023-08-13T02:45:37.306Z,66.27
2023-08-13T02:48:08.319Z,66.08
2023-08-13T02:50:38.869Z,64.70
2023-08-13T02:53:09.356Z,66.39
2023-08-13T02:55:41.463Z,65.52
2023-08-13T02:58:11.902Z,65.95
2023-08-13T03:00:42.379Z,64.87
2023-08-13T03:03:12.920Z,64.46
2023-08-13T03:05:43.448Z,64.61
2023-08-13T03:08:13.971Z,64.45
2023-08-13T03:10:46.144Z,64.60
2023-08-13T03:13:16.634Z,62.87
2023-08-13T03:15:47.252Z,65.46
2023-08-13T03:18:18.022Z,65.41
2023-08-13T03:20:48.482Z,63.77
2023-08-13T03:23:18.898Z,62.12
2023-08-13T03:25:50.986Z,65.90
2023-08-13T03:28:24.169Z,63.94
2023-08-13T03:31:00.694Z,63.15
2023-08-13T03:33:31.209Z,65.82
2023-08-13T03:36:02.092Z,64.03
2023-08-13T03:38:32.567Z,63.14
2023-08-13T03:41:04.602Z,63.25
2023-08-13T03:43:35.199Z,63.73
2023-08-13T03:46:06.323Z,64.68
2023-08-13T03:48:37.177Z,62.03
2023-08-13T03:51:07.748Z,62.84
2023-08-13T03:53:38.180Z,64.32
2023-08-13T03:56:11.775Z,61.31
2023-08-13T03:58:42.266Z,62.32
2023-08-13T04:01:12.738Z,61.06
2023-08-13T04:03:43.324Z,57.03
2023-08-13T04:06:13.757Z,59.60
2023-08-13T04:08:44.312Z,58.57
2023-08-13T04:11:16.398Z,50.27
2023-08-13T04:13:46.925Z,50.88
2023-08-13T04:16:17.374Z,49.45
2023-08-13T04:18:47.893Z,48.97
2023-08-13T04:21:18.313Z,48.17
2023-08-13T04:23:48.724Z,48.23
2023-08-13T04:26:20.718Z,49.61
2023-08-13T04:28:51.207Z,48.89
2023-08-13T04:31:22.202Z,48.45
2023-08-13T04:33:53.035Z,48.43
2023-08-13T04:36:23.523Z,47.50
2023-08-13T04:38:55.872Z,47.16
2023-08-13T04:41:29.262Z,48.19
2023-08-13T04:44:00.116Z,46.21
2023-08-13T04:46:30.598Z,48.44
2023-08-13T04:49:01.035Z,48.68
2023-08-13T04:51:31.516Z,46.32
2023-08-13T04:54:02.056Z,47.68
2023-08-13T04:56:34.254Z,47.02
2023-08-13T04:59:04.630Z,47.15
2023-08-13T05:01:35.192Z,46.55
2023-08-13T05:04:05.950Z,46.37
2023-08-13T05:06:36.505Z,45.47
2023-08-13T05:09:08.301Z,46.12
2023-08-13T05:11:41.145Z,47.87
2023-08-13T05:14:11.689Z,45.46
2023-08-13T05:16:42.155Z,44.79
2023-08-13T05:19:12.691Z,43.58
2023-08-13T05:21:43.086Z,42.36
2023-08-13T05:24:13.597Z,43.70
2023-08-13T05:26:47.421Z,44.94
2023-08-13T05:29:19.672Z,52.19
2023-08-13T05:31:50.154Z,55.00
2023-08-13T05:34:20.617Z,55.66
2023-08-13T05:36:51.180Z,50.80
2023-08-13T05:39:22.924Z,53.10
2023-08-13T05:41:55.044Z,55.85
2023-08-13T05:44:25.553Z,56.50
2023-08-13T05:46:56.051Z,58.41
2023-08-13T05:49:26.476Z,57.30
2023-08-13T05:51:57.046Z,59.49
2023-08-13T05:54:28.307Z,60.68
2023-08-13T05:57:00.373Z,60.94
2023-08-13T05:59:30.974Z,60.11
2023-08-13T06:02:01.895Z,60.63
2023-08-13T06:04:32.386Z,60.41
2023-08-13T06:07:03.462Z,61.11
2023-08-13T06:09:34.211Z,61.79
2023-08-13T06:12:06.347Z,61.75
2023-08-13T06:14:36.884Z,62.21
2023-08-13T06:17:14.578Z,63.39
2023-08-13T06:19:46.064Z,63.60
2023-08-13T06:22:20.438Z,64.23
2023-08-13T06:24:51.103Z,64.40
2023-08-13T06:27:24.109Z,63.53
2023-08-13T06:30:09.122Z,64.56
2023-08-13T06:32:40.703Z,64.88
2023-08-13T06:35:11.726Z,63.88
2023-08-13T06:37:55.681Z,65.27
2023-08-13T06:40:32.629Z,65.86
2023-08-13T06:43:04.811Z,67.40
2023-08-13T06:45:35.342Z,67.10
2023-08-13T06:48:06.206Z,65.63
2023-08-13T06:50:36.761Z,67.45
2023-08-13T06:53:07.517Z,66.44
2023-08-13T06:55:38.015Z,66.08
2023-08-13T06:58:10.160Z,66.45
2023-08-13T07:00:41.820Z,66.60
2023-08-13T07:03:13.801Z,66.70
2023-08-13T07:05:44.580Z,66.93
2023-08-13T07:08:15.308Z,66.85
2023-08-13T07:10:45.826Z,65.52
2023-08-13T07:13:18.022Z,65.55
2023-08-13T07:15:48.614Z,56.26
2023-08-13T07:18:19.227Z,52.27
2023-08-13T07:20:49.722Z,50.40
2023-08-13T07:23:20.321Z,52.79
2023-08-13T07:25:51.398Z,51.10
2023-08-13T07:28:23.371Z,49.78
2023-08-13T07:30:54.390Z,48.68
2023-08-13T07:33:24.883Z,48.69
2023-08-13T07:35:55.507Z,48.55
2023-08-13T07:38:26.130Z,49.15
2023-08-13T07:40:57.461Z,47.23
2023-08-13T07:43:29.881Z,47.51
2023-08-13T07:46:00.366Z,45.95
2023-08-13T07:48:30.915Z,45.23
2023-08-13T07:51:01.572Z,44.93
2023-08-13T07:53:33.547Z,43.94
2023-08-13T07:56:04.688Z,44.43
2023-08-13T07:58:37.261Z,50.89
2023-08-13T08:01:07.842Z,55.88
2023-08-13T08:03:38.503Z,56.04
2023-08-13T08:06:09.161Z,59.43
2023-08-13T08:08:39.589Z,61.67
2023-08-13T08:11:10.124Z,63.00
2023-08-13T08:13:42.288Z,63.67
2023-08-13T08:16:12.800Z,63.69
2023-08-13T08:18:44.499Z,66.29
2023-08-13T08:21:15.226Z,68.74
2023-08-13T08:23:45.877Z,70.54
2023-08-13T08:26:16.332Z,71.73
2023-08-13T08:28:48.512Z,72.64
2023-08-13T08:31:19.047Z,73.77
2023-08-13T08:33:49.544Z,74.54
2023-08-13T08:36:20.041Z,75.15
2023-08-13T08:38:50.774Z,75.99
2023-08-13T08:41:24.296Z,76.24
2023-08-13T08:43:57.892Z,77.16
2023-08-13T08:46:31.173Z,78.21
2023-08-13T08:49:03.577Z,77.51
2023-08-13T08:51:34.155Z,77.21
2023-08-13T08:54:06.362Z,77.92
2023-08-13T08:56:37.248Z,78.16
2023-08-13T08:59:09.398Z,78.11
2023-08-13T09:01:40.230Z,78.33
2023-08-13T09:04:17.105Z,78.12
2023-08-13T09:07:00.934Z,78.17
2023-08-13T09:09:33.110Z,77.94
2023-08-13T09:12:07.172Z,77.53
2023-08-13T09:18:08.294Z,79.82
2023-08-13T09:23:44.158Z,79.45
2023-08-13T09:26:20.938Z,79.48
2023-08-13T09:29:17.578Z,80.48
2023-08-13T09:32:08.839Z,80.34
2023-08-13T09:34:52.438Z,81.18
2023-08-13T09:37:40.358Z,80.71
2023-08-13T09:40:14.313Z,80.14
2023-08-13T09:42:49.843Z,80.44
2023-08-13T09:45:23.317Z,80.21
2023-08-13T09:48:00.495Z,79.60
2023-08-13T09:50:38.824Z,80.42
2023-08-13T09:53:16.748Z,80.27
2023-08-13T09:55:54.715Z,80.69
2023-08-13T09:58:26.292Z,78.88
2023-08-13T10:01:01.062Z,78.33
2023-08-13T10:03:37.441Z,78.38
2023-08-13T10:06:10.545Z,78.52
2023-08-13T10:08:41.238Z,79.80
2023-08-13T10:11:12.277Z,82.16
2023-08-13T10:13:48.590Z,83.97
2023-08-13T10:16:41.493Z,85.14
2023-08-13T10:19:19.965Z,86.23
2023-08-13T10:22:13.400Z,86.85
2023-08-13T10:24:49.562Z,87.24
2023-08-13T10:27:26.368Z,88.27
2023-08-13T10:30:12.209Z,88.92
2023-08-13T10:32:52.530Z,89.52
2023-08-13T10:35:36.448Z,90.39
2023-08-13T10:38:10.439Z,89.76
2023-08-13T10:41:04.418Z,89.87
2023-08-13T10:44:04.066Z,90.51
2023-08-13T10:46:52.703Z,91.17
2023-08-13T10:49:25.787Z,90.70
2023-08-13T10:52:03.676Z,89.12
2023-08-13T10:54:39.048Z,85.43
2023-08-13T10:57:26.824Z,79.41
2023-08-13T10:59:58.389Z,78.29
2023-08-13T11:02:43.237Z,84.96
2023-08-13T11:05:22.438Z,88.08
2023-08-13T11:08:47.296Z,90.63
2023-08-13T11:11:34.855Z,93.04
2023-08-13T11:14:07.255Z,93.80
2023-08-13T11:16:38.966Z,94.84
2023-08-13T11:19:10.869Z,95.84
2023-08-13T11:21:42.749Z,96.56
2023-08-13T11:24:17.722Z,97.28
2023-08-13T11:26:51.304Z,97.70
2023-08-13T11:29:26.945Z,98.09
2023-08-13T11:31:58.978Z,98.34
2023-08-13T11:34:30.856Z,99.00
2023-08-13T11:37:02.880Z,99.37
2023-08-13T11:39:36.585Z,99.85
2023-08-13T11:42:14.791Z,100.00
2023-08-13T11:44:46.576Z,100.00
2023-08-13T11:47:27.110Z,100.00
2023-08-13T11:50:02.132Z,100.00
2023-08-13T11:52:34.815Z,100.00
2023-08-13T11:55:09.410Z,100.00
2023-08-13T11:57:44.279Z,100.00
2023-08-13T12:00:20.220Z,100.00
2023-08-13T12:02:53.086Z,100.00
2023-08-13T12:05:29.537Z,100.00
2023-08-13T12:08:03.794Z,100.00
2023-08-13T12:10:39.193Z,100.00
2023-08-13T12:13:10.783Z,100.00
2023-08-13T12:15:42.613Z,100.00
2023-08-13T12:18:14.243Z,100.00
2023-08-13T12:20:46.839Z,100.00
2023-08-13T12:23:18.614Z,100.00
2023-08-13T12:25:52.132Z,100.00
2023-08-13T12:28:24.850Z,100.00
2023-08-13T12:30:56.687Z,100.00
2023-08-13T12:34:05.898Z,100.00
2023-08-13T12:36:37.979Z,100.00
2023-08-13T12:39:10.258Z,100.00
2023-08-13T12:41:44.019Z,100.00
2023-08-13T12:44:15.736Z,100.00
2023-08-13T12:46:47.567Z,100.00
2023-08-13T12:49:19.736Z,100.00
2023-08-13T12:51:51.824Z,100.00
2023-08-13T12:54:23.739Z,100.00
2023-08-13T12:56:57.552Z,100.00
2023-08-13T12:59:29.923Z,100.00
2023-08-13T13:02:01.777Z,100.00
2023-08-13T13:04:33.761Z,100.00
2023-08-13T13:07:05.558Z,100.00
2023-08-13T13:09:37.138Z,100.00
2023-08-13T13:12:11.789Z,100.00
2023-08-13T13:14:43.675Z,100.00
2023-08-13T13:17:15.973Z,100.00
2023-08-13T13:19:47.820Z,100.00
2023-08-13T13:22:19.790Z,100.00
2023-08-13T13:24:51.394Z,100.00
2023-08-13T13:27:24.733Z,100.00
2023-08-13T13:29:56.494Z,100.00
2023-08-13T13:32:28.391Z,100.00
2023-08-13T13:35:00.217Z,100.00
2023-08-13T13:37:33.392Z,100.00
2023-08-13T13:40:06.059Z,100.00
2023-08-13T13:42:39.867Z,100.00
2023-08-13T13:45:12.488Z,100.00
2023-08-13T13:47:44.665Z,100.00
2023-08-13T13:50:16.456Z,100.00
2023-08-13T13:52:50.352Z,100.00
2023-08-13T13:55:22.225Z,100.00
2023-08-13T13:57:55.901Z,100.00
2023-08-13T14:00:27.627Z,100.00
2023-08-13T14:02:59.552Z,100.00
2023-08-13T14:05:31.392Z,100.00
2023-08-13T14:08:03.397Z,100.00
2023-08-13T14:10:35.429Z,100.00
2023-08-13T14:13:09.010Z,100.00
2023-08-13T14:15:41.144Z,100.00
2023-08-13T14:18:13.324Z,100.00
2023-08-13T14:20:45.133Z,100.00
2023-08-13T14:23:16.972Z,100.00
2023-08-13T14:25:48.840Z,100.00
2023-08-13T14:28:22.373Z,100.00
2023-08-13T14:30:54.372Z,100.00
2023-08-13T14:33:26.353Z,100.00
2023-08-13T14:35:58.531Z,100.00
2023-08-13T14:38:30.661Z,100.00
2023-08-13T14:41:02.539Z,100.00
2023-08-13T14:43:36.295Z,100.00
2023-08-13T14:46:07.975Z,100.00
2023-08-13T14:48:39.895Z,100.00
2023-08-13T14:51:11.938Z,100.00
2023-08-13T14:53:43.956Z,100.00
2023-08-13T14:56:15.745Z,100.00
2023-08-13T14:58:49.538Z,100.00
2023-08-13T15:01:21.433Z,100.00
2023-08-13T15:03:53.696Z,100.00
2023-08-13T15:06:25.626Z,100.00
2023-08-13T15:08:57.853Z,100.00
2023-08-13T15:11:29.650Z,100.00
2023-08-13T15:14:03.560Z,100.00
2023-08-13T15:16:35.278Z,100.00
2023-08-13T15:19:07.072Z,100.00
2023-08-13T15:21:38.836Z,100.00
2023-08-13T15:24:11.580Z,100.00
2023-08-13T15:26:43.689Z,100.00
2023-08-13T15:29:17.265Z,100.00
2023-08-13T15:31:49.112Z,100.00
2023-08-13T15:34:21.214Z,100.00
2023-08-13T15:36:53.101Z,100.00
2023-08-13T15:39:24.870Z,100.00
2023-08-13T15:41:59.629Z,100.00
2023-08-13T15:44:33.382Z,100.00
2023-08-13T15:47:05.096Z,100.00
2023-08-13T15:49:36.891Z,100.00
2023-08-13T15:52:10.106Z,100.00
2023-08-13T15:54:41.889Z,100.00
2023-08-13T15:57:13.963Z,100.00
2023-08-13T15:59:47.643Z,100.00
2023-08-13T16:02:19.617Z,100.00
2023-08-13T16:04:51.530Z,100.00
2023-08-13T16:07:23.469Z,100.00
2023-08-13T16:09:55.380Z,100.00
2023-08-13T16:12:27.144Z,100.00
2023-08-13T16:15:11.500Z,100.00
2023-08-13T16:17:44.588Z,100.00
2023-08-13T16:20:20.248Z,100.00
2023-08-13T16:22:52.008Z,100.00
2023-08-13T16:25:23.815Z,100.00
2023-08-13T16:27:56.268Z,100.00
2023-08-13T16:30:29.984Z,100.00
2023-08-13T16:33:02.583Z,100.00
2023-08-13T16:35:34.350Z,100.00
2023-08-13T16:38:06.397Z,100.00
2023-08-13T16:40:39.527Z,100.00
2023-08-13T16:43:13.472Z,100.00
2023-08-13T16:45:47.543Z,100.00
2023-08-13T16:48:19.352Z,100.00
2023-08-13T16:50:50.801Z,100.00
2023-08-13T16:53:22.786Z,100.00
2023-08-13T16:55:59.202Z,100.00
2023-08-13T16:58:30.996Z,100.00
2023-08-13T17:01:05.557Z,100.00
2023-08-13T17:03:37.217Z,100.00
2023-08-13T17:06:09.153Z,100.00
2023-08-13T17:08:41.061Z,100.00
2023-08-13T17:11:12.503Z,100.00
2023-08-13T17:13:45.067Z,100.00
2023-08-13T17:16:18.978Z,100.00
2023-08-13T17:18:50.752Z,100.00
2023-08-13T17:21:23.057Z,100.00
2023-08-13T17:23:55.116Z,100.00
2023-08-13T17:26:27.667Z,100.00
2023-08-13T17:28:59.774Z,100.00
2023-08-13T17:31:34.277Z,100.00
2023-08-13T17:34:06.234Z,100.00
2023-08-13T17:36:37.022Z,100.00
2023-08-13T17:39:13.706Z,100.00
2023-08-13T17:41:44.265Z,100.00
2023-08-13T17:44:14.859Z,100.00
2023-08-13T17:46:47.119Z,100.00
2023-08-13T17:49:19.666Z,100.00
2023-08-13T17:51:53.332Z,100.00
2023-08-13T17:54:27.316Z,100.00
2023-08-13T17:56:58.941Z,100.00
2023-08-13T17:59:32.722Z,100.00
2023-08-13T18:02:08.962Z,100.00
2023-08-13T18:04:41.840Z,100.00
2023-08-13T18:07:14.400Z,100.00
2023-08-13T18:09:46.856Z,100.00
2023-08-13T18:12:17.452Z,100.00
2023-08-13T18:14:48.072Z,100.00
2023-08-13T18:17:20.564Z,100.00
2023-08-13T18:19:54.798Z,100.00
2023-08-13T18:22:25.572Z,100.00
2023-08-13T18:24:57.733Z,100.00
2023-08-13T18:27:28.338Z,100.00
2023-08-13T18:30:01.536Z,100.00
2023-08-13T18:32:33.977Z,100.00
2023-08-13T18:35:06.613Z,100.00
2023-08-13T18:37:37.114Z,100.00
2023-08-13T18:40:14.520Z,100.00
2023-08-13T18:42:45.437Z,100.00
2023-08-13T18:45:15.979Z,100.00
2023-08-13T18:47:48.474Z,100.00
2023-08-13T18:50:22.540Z,100.00
2023-08-13T18:52:56.108Z,100.00
2023-08-13T18:55:28.299Z,100.00
2023-08-13T18:57:58.872Z,100.00
2023-08-13T19:00:42.808Z,100.00
2023-08-13T19:03:15.368Z,100.00
2023-08-13T19:05:47.209Z,100.00
2023-08-13T19:08:17.905Z,100.00
2023-08-13T19:10:48.707Z,100.00
2023-08-13T19:13:20.272Z,100.00
2023-08-13T19:15:50.944Z,100.00
2023-08-13T19:18:24.726Z,100.00
2023-08-13T19:20:55.995Z,100.00
2023-08-13T19:23:26.409Z,100.00
2023-08-13T19:25:56.895Z,100.00
2023-08-13T19:28:27.429Z,100.00
2023-08-13T19:30:58.020Z,100.00
2023-08-13T19:33:30.277Z,100.00
2023-08-13T19:36:00.713Z,100.00
2023-08-13T19:38:31.303Z,100.00
2023-08-13T19:41:01.958Z,100.00
2023-08-13T19:43:32.502Z,100.00
2023-08-13T19:46:02.996Z,100.00
2023-08-13T19:48:35.148Z,100.00
2023-08-13T19:51:05.612Z,100.00
2023-08-13T19:53:36.258Z,100.00
2023-08-13T19:56:06.787Z,100.00
2023-08-13T19:58:37.375Z,100.00
2023-08-13T20:01:08.164Z,100.00
2023-08-13T20:03:40.347Z,100.00
2023-08-13T20:06:10.952Z,100.00
2023-08-13T20:08:41.474Z,100.00
2023-08-13T20:11:11.972Z,100.00
2023-08-13T20:13:42.508Z,100.00
2023-08-13T20:16:12.959Z,100.00
2023-08-13T20:18:45.069Z,100.00
2023-08-13T20:21:15.612Z,100.00
2023-08-13T20:23:48.115Z,100.00
2023-08-13T20:26:20.010Z,100.00
2023-08-13T20:28:50.925Z,100.00
2023-08-13T20:31:21.470Z,100.00
2023-08-13T20:33:53.604Z,100.00
2023-08-13T20:36:24.470Z,100.00
2023-08-13T20:38:55.086Z,100.00
2023-08-13T20:41:25.640Z,100.00
2023-08-13T20:43:57.062Z,100.00
2023-08-13T20:46:27.634Z,100.00
2023-08-13T20:48:59.790Z,100.00
2023-08-13T20:51:30.529Z,100.00
2023-08-13T20:54:01.012Z,100.00
2023-08-13T20:56:31.900Z,100.00
2023-08-13T20:59:02.507Z,100.00
2023-08-13T21:01:33.622Z,100.00
2023-08-13T21:04:06.367Z,100.00
2023-08-13T21:06:37.158Z,100.00
2023-08-13T21:09:07.824Z,100.00
2023-08-13T21:11:38.428Z,100.00
2023-08-13T21:14:09.230Z,100.00
2023-08-13T21:16:39.727Z,100.00
2023-08-13T21:19:12.010Z,100.00
2023-08-13T21:21:42.581Z,100.00
2023-08-13T21:24:13.013Z,100.00
2023-08-13T21:26:43.518Z,99.31
2023-08-13T21:29:14.819Z,96.84
2023-08-13T21:31:45.366Z,96.64
2023-08-13T21:34:17.424Z,93.67
2023-08-13T21:36:47.928Z,93.29
2023-08-13T21:39:18.968Z,93.74
2023-08-13T21:41:50.228Z,92.21
2023-08-13T21:44:20.681Z,88.83
2023-08-13T21:46:51.250Z,85.20
2023-08-13T21:49:23.378Z,85.07
2023-08-13T21:51:54.512Z,85.45
2023-08-13T21:54:25.069Z,82.08
2023-08-13T21:56:55.442Z,81.38
2023-08-13T21:59:26.101Z,80.98
2023-08-13T22:01:56.644Z,81.33
2023-08-13T22:04:28.881Z,81.38
2023-08-13T22:06:59.424Z,77.83
2023-08-13T22:09:30.011Z,78.16
2023-08-13T22:12:01.033Z,77.16
2023-08-13T22:14:31.678Z,77.61
2023-08-13T22:17:02.302Z,77.67
2023-08-13T22:19:52.219Z,77.38
2023-08-13T22:22:23.475Z,77.92
2023-08-13T22:24:54.216Z,76.71
2023-08-13T22:27:24.916Z,75.53
2023-08-13T22:29:55.405Z,76.36
2023-08-13T22:32:25.981Z,75.61
2023-08-13T22:34:58.173Z,76.22
2023-08-13T22:37:28.766Z,74.39
2023-08-13T22:39:59.411Z,73.18
2023-08-13T22:42:29.907Z,72.33
2023-08-13T22:45:00.417Z,70.36
2023-08-13T22:47:30.960Z,69.00
2023-08-13T22:50:07.561Z,67.68
2023-08-13T22:52:38.063Z,67.78
2023-08-13T22:55:10.826Z,68.63
2023-08-13T22:57:41.676Z,70.48
2023-08-13T23:00:16.910Z,67.64
2023-08-13T23:02:47.585Z,68.12
2023-08-13T23:05:19.715Z,68.48
2023-08-13T23:07:50.235Z,68.56
2023-08-13T23:10:20.981Z,67.24
2023-08-13T23:12:51.542Z,66.75
2023-08-13T23:15:22.144Z,67.75
2023-08-13T23:17:52.711Z,67.36
2023-08-13T23:20:25.005Z,66.75
2023-08-13T23:22:58.635Z,68.08
2023-08-13T23:25:29.136Z,67.43
2023-08-13T23:27:59.638Z,65.83
2023-08-13T23:30:30.014Z,65.97
2023-08-13T23:33:00.466Z,63.86
2023-08-13T23:35:32.672Z,63.38
2023-08-13T23:38:03.143Z,65.63
2023-08-13T23:40:33.628Z,65.08
2023-08-13T23:43:04.140Z,63.97
2023-08-13T23:45:34.688Z,62.41
2023-08-13T23:48:05.267Z,64.82
2023-08-13T23:50:53.625Z,63.86
2023-08-13T23:53:25.867Z,65.45
2023-08-13T23:55:56.361Z,64.00
2023-08-13T23:58:26.801Z,64.90
